Terminal Aerodrome Forecast
Issued by NWS Sterling, VA

Home | Current Version | Previous Version | Text Only | Print | Product List | Glossary On
Versions: 1 2 3 4 5 6 7 8 9 10 11 12 13 14 15 16 17 18 19 20 21 22 23
569
FTUS41 KLWX 221138
TAFMRB
TAF
KMRB 221138Z 2212/2312 27008KT P6SM FEW250
     FM221400 27013G23KT P6SM SCT080
     FM230000 30009KT P6SM FEW070
     FM230700 32005KT P6SM SKC=

USA.gov is the U.S. government's official web portal to all federal, state and local government web resources and services.